Time;durP1;ratioP1;P1;durP2;ratioP2;P2;SDS_P1;SDS_P2;PMS_P1;PMS_P2;Temp;Humidity;BMP_temperature;BMP_pressure;BME280_temperature;BME280_humidity;BME280_pressure;Samples;Min_cycle;Max_cycle;Signal;HPM_P1;HPM_P2
2023/01/06 00:01:10;;;;;;;1.05;0.60;;;;;;;;;;5090958;28;20043;-39
2023/01/06 00:03:36;;;;;;;1.15;0.50;;;;;;;;;;5057967;28;20017;-39
2023/01/06 00:06:03;;;;;;;2.10;0.90;;;;;;;;;;5050210;28;20096;-39
2023/01/06 00:08:29;;;;;;;1.88;0.68;;;;;;;;;;5050898;28;20394;-39
2023/01/06 00:10:55;;;;;;;0.90;0.52;;;;;;;;;;5050527;28;20036;-39
2023/01/06 00:13:22;;;;;;;1.05;0.50;;;;;;;;;;5051004;28;20382;-39
2023/01/06 00:15:48;;;;;;;0.55;0.43;;;;;;;;;;5050826;28;20370;-39
2023/01/06 00:18:14;;;;;;;1.00;0.50;;;;;;;;;;5050761;28;20482;-39
2023/01/06 00:20:40;;;;;;;0.50;0.50;;;;;;;;;;5051547;28;20029;-39
2023/01/06 00:23:06;;;;;;;1.20;0.50;;;;;;;;;;5050282;28;20504;-39
2023/01/06 00:25:32;;;;;;;0.85;0.35;;;;;;;;;;5051608;28;20021;-39
2023/01/06 00:27:58;;;;;;;1.20;0.60;;;;;;;;;;5049898;28;20029;-39
2023/01/06 00:30:24;;;;;;;1.02;0.60;;;;;;;;;;5053186;28;21913;-39
2023/01/06 00:32:50;;;;;;;1.77;0.75;;;;;;;;;;5070022;28;20032;-39
2023/01/06 00:35:16;;;;;;;0.77;0.60;;;;;;;;;;5074875;28;20048;-39
2023/01/06 00:37:42;;;;;;;0.63;0.30;;;;;;;;;;5073332;28;20068;-39
2023/01/06 00:40:08;;;;;;;0.50;0.50;;;;;;;;;;5091717;28;20024;-39
2023/01/06 00:42:34;;;;;;;0.68;0.50;;;;;;;;;;5095316;28;20063;-39
2023/01/06 00:45:00;;;;;;;1.08;0.80;;;;;;;;;;5094033;28;20043;-39
2023/01/06 00:47:26;;;;;;;0.90;0.60;;;;;;;;;;5095496;28;20024;-39
2023/01/06 00:49:52;;;;;;;0.85;0.43;;;;;;;;;;5093853;28;20111;-39
2023/01/06 00:52:18;;;;;;;0.50;0.40;;;;;;;;;;5094843;28;20024;-39
2023/01/06 00:54:44;;;;;;;1.95;0.65;;;;;;;;;;5093961;28;20027;-39
2023/01/06 00:57:10;;;;;;;0.73;0.50;;;;;;;;;;5094968;28;20457;-39
2023/01/06 00:59:36;;;;;;;2.28;0.65;;;;;;;;;;5094385;28;20491;-39
2023/01/06 01:02:02;;;;;;;0.70;0.55;;;;;;;;;;5061170;28;20043;-39
2023/01/06 01:04:28;;;;;;;0.70;0.65;;;;;;;;;;5053652;28;20025;-39
2023/01/06 01:06:54;;;;;;;0.82;0.57;;;;;;;;;;5053350;28;20466;-39
2023/01/06 01:09:22;;;;;;;0.70;0.40;;;;;;;;;;5053792;28;20025;-39
2023/01/06 01:14:33;;;;;;;0.63;0.50;;;;;;;;;;5054005;28;20174;-39
2023/01/06 01:16:59;;;;;;;0.68;0.52;;;;;;;;;;5053488;28;20025;-39
2023/01/06 01:19:26;;;;;;;1.45;0.93;;;;;;;;;;5053386;28;20112;-39
2023/01/06 01:21:52;;;;;;;0.70;0.50;;;;;;;;;;5053198;28;20022;-39
2023/01/06 01:24:18;;;;;;;0.60;0.40;;;;;;;;;;5053833;28;20029;-39
2023/01/06 01:26:44;;;;;;;1.52;0.70;;;;;;;;;;5053850;28;20029;-39
2023/01/06 01:29:12;;;;;;;0.50;0.30;;;;;;;;;;5053415;28;20044;-39
2023/01/06 01:31:38;;;;;;;0.88;0.75;;;;;;;;;;5054132;28;20075;-39
2023/01/06 01:34:04;;;;;;;1.23;0.73;;;;;;;;;;5052818;28;20032;-39
2023/01/06 01:36:30;;;;;;;0.90;0.63;;;;;;;;;;5081822;28;20427;-39
2023/01/06 01:38:56;;;;;;;0.68;0.40;;;;;;;;;;5092971;28;20036;-39
2023/01/06 01:41:23;;;;;;;0.93;0.60;;;;;;;;;;5094166;28;20051;-39
2023/01/06 01:43:51;;;;;;;0.55;0.45;;;;;;;;;;5075985;28;20028;-39
2023/01/06 01:46:19;;;;;;;0.47;0.40;;;;;;;;;;5094051;28;20027;-39
2023/01/06 01:48:45;;;;;;;0.40;0.40;;;;;;;;;;5093035;28;20059;-40
2023/01/06 01:51:13;;;;;;;1.55;0.60;;;;;;;;;;5093356;28;20084;-38
2023/01/06 01:53:41;;;;;;;0.40;0.32;;;;;;;;;;5092757;28;20020;-41
2023/01/06 01:56:09;;;;;;;0.50;0.40;;;;;;;;;;5093107;28;20027;-38
2023/01/06 01:58:57;;;;;;;0.75;0.52;;;;;;;;;;5078065;28;20029;-38
2023/01/06 02:01:24;;;;;;;0.40;0.40;;;;;;;;;;5058450;28;20044;-38
2023/01/06 02:03:50;;;;;;;0.88;0.50;;;;;;;;;;5052060;28;20088;-39
2023/01/06 02:06:18;;;;;;;0.75;0.40;;;;;;;;;;5053122;28;20044;-39
2023/01/06 02:08:49;;;;;;;1.58;1.20;;;;;;;;;;5052434;28;20059;-41
2023/01/06 02:11:15;;;;;;;0.60;0.45;;;;;;;;;;5053402;28;20025;-40
2023/01/06 02:13:42;;;;;;;0.68;0.43;;;;;;;;;;5052686;28;20096;-40
2023/01/06 02:16:19;;;;;;;0.73;0.52;;;;;;;;;;5052658;28;20048;-40
2023/01/06 02:19:00;;;;;;;0.75;0.50;;;;;;;;;;5052283;28;20041;-41
2023/01/06 02:21:38;;;;;;;0.52;0.40;;;;;;;;;;5053142;28;20013;-38
2023/01/06 02:24:04;;;;;;;0.30;0.30;;;;;;;;;;5051821;28;20175;-40
2023/01/06 02:26:36;;;;;;;1.05;0.50;;;;;;;;;;5053129;28;20525;-40
2023/01/06 02:29:20;;;;;;;0.60;0.50;;;;;;;;;;5051454;28;20025;-38
2023/01/06 02:32:01;;;;;;;0.40;0.40;;;;;;;;;;5059795;28;20036;-41
2023/01/06 02:34:38;;;;;;;0.75;0.50;;;;;;;;;;5052356;28;20036;-40
2023/01/06 02:37:04;;;;;;;0.93;0.45;;;;;;;;;;5089506;28;20016;-38
2023/01/06 02:39:36;;;;;;;0.50;0.50;;;;;;;;;;5092456;28;20035;-40
2023/01/06 02:42:08;;;;;;;1.55;0.50;;;;;;;;;;5092036;28;20016;-38
2023/01/06 02:44:54;;;;;;;0.80;0.43;;;;;;;;;;5092541;28;20076;-40
2023/01/06 02:47:32;;;;;;;0.60;0.50;;;;;;;;;;5093215;28;20377;-40
2023/01/06 02:50:17;;;;;;;0.60;0.45;;;;;;;;;;5089060;28;20035;-38
2023/01/06 02:52:46;;;;;;;0.75;0.50;;;;;;;;;;5092532;28;20024;-41
2023/01/06 02:55:16;;;;;;;0.60;0.40;;;;;;;;;;5092318;28;20031;-40
2023/01/06 02:57:45;;;;;;;0.90;0.82;;;;;;;;;;5085268;28;20035;-40
2023/01/06 03:00:11;;;;;;;0.60;0.60;;;;;;;;;;5071360;28;20016;-40
2023/01/06 03:02:40;;;;;;;1.38;0.30;;;;;;;;;;5085540;28;20039;-40
2023/01/06 03:05:07;;;;;;;0.30;0.30;;;;;;;;;;5090188;28;20104;-40
2023/01/06 03:07:35;;;;;;;0.63;0.43;;;;;;;;;;5092445;28;20044;-40
2023/01/06 03:10:02;;;;;;;1.08;0.88;;;;;;;;;;5091026;28;20021;-40
2023/01/06 03:12:48;;;;;;;0.40;0.40;;;;;;;;;;5092291;28;20056;-40
2023/01/06 03:15:14;;;;;;;0.85;0.38;;;;;;;;;;5092515;28;20099;-40
2023/01/06 03:17:40;;;;;;;0.93;0.50;;;;;;;;;;5092328;28;20046;-40
2023/01/06 03:20:07;;;;;;;0.40;0.40;;;;;;;;;;5090858;28;20016;-40
2023/01/06 03:22:33;;;;;;;0.80;0.40;;;;;;;;;;5092406;28;20034;-40
2023/01/06 03:25:00;;;;;;;0.55;0.40;;;;;;;;;;5090973;28;20069;-40
2023/01/06 03:27:26;;;;;;;0.90;0.50;;;;;;;;;;5092040;28;20055;-40
2023/01/06 03:29:52;;;;;;;0.40;0.30;;;;;;;;;;5091054;28;20028;-41
2023/01/06 03:32:24;;;;;;;0.57;0.43;;;;;;;;;;5066399;28;20449;-40
2023/01/06 03:34:50;;;;;;;0.75;0.50;;;;;;;;;;5050909;28;20021;-41
2023/01/06 03:37:22;;;;;;;0.43;0.40;;;;;;;;;;5091888;28;20070;-38
2023/01/06 03:39:54;;;;;;;0.50;0.40;;;;;;;;;;5090936;28;20039;-41
2023/01/06 03:45:23;;;;;;;0.77;0.32;;;;;;;;;;5090705;28;19957;-40
2023/01/06 03:48:12;;;;;;;0.70;0.70;;;;;;;;;;5073679;28;20024;-41
2023/01/06 03:50:42;;;;;;;0.40;0.40;;;;;;;;;;5071893;28;20051;-40
2023/01/06 03:53:16;;;;;;;0.50;0.50;;;;;;;;;;5091019;28;20022;-40
2023/01/06 03:55:43;;;;;;;1.00;0.43;;;;;;;;;;5091872;28;20028;-40
2023/01/06 03:58:10;;;;;;;0.50;0.45;;;;;;;;;;5079158;28;20032;-40
2023/01/06 04:00:37;;;;;;;0.40;0.40;;;;;;;;;;5066867;28;20031;-41
2023/01/06 04:03:07;;;;;;;0.60;0.30;;;;;;;;;;5050393;28;20028;-40
2023/01/06 04:05:33;;;;;;;0.40;0.40;;;;;;;;;;5051154;28;20053;-40
2023/01/06 04:07:59;;;;;;;0.50;0.50;;;;;;;;;;5049893;28;20029;-40
2023/01/06 04:10:25;;;;;;;0.68;0.50;;;;;;;;;;5051722;28;20079;-40
2023/01/06 04:12:51;;;;;;;3.13;0.52;;;;;;;;;;5050372;28;20036;-40
2023/01/06 04:15:21;;;;;;;0.55;0.30;;;;;;;;;;5052973;28;20032;-40
2023/01/06 04:17:48;;;;;;;0.40;0.40;;;;;;;;;;5054324;28;20037;-40
2023/01/06 04:20:15;;;;;;;0.50;0.47;;;;;;;;;;5055387;28;20378;-40
2023/01/06 04:22:41;;;;;;;0.40;0.40;;;;;;;;;;5055117;28;20527;-40
2023/01/06 04:25:08;;;;;;;0.93;0.32;;;;;;;;;;5054137;28;20032;-40
2023/01/06 04:27:34;;;;;;;0.95;0.50;;;;;;;;;;5061579;28;20047;-40
2023/01/06 04:30:00;;;;;;;0.85;0.45;;;;;;;;;;5081945;28;20046;-40
2023/01/06 04:32:26;;;;;;;0.50;0.50;;;;;;;;;;5066055;28;20474;-40
2023/01/06 04:34:52;;;;;;;0.55;0.30;;;;;;;;;;5074633;28;20063;-40
2023/01/06 04:37:18;;;;;;;0.57;0.43;;;;;;;;;;5095473;28;20032;-40
2023/01/06 04:39:44;;;;;;;0.80;0.40;;;;;;;;;;5094512;28;20038;-40
2023/01/06 04:42:10;;;;;;;0.60;0.40;;;;;;;;;;5095191;28;20104;-40
2023/01/06 04:44:36;;;;;;;0.55;0.45;;;;;;;;;;5094740;28;20052;-40
2023/01/06 04:47:02;;;;;;;0.88;0.60;;;;;;;;;;5094456;28;20026;-40
2023/01/06 04:49:29;;;;;;;0.80;0.43;;;;;;;;;;5094322;28;20393;-40
2023/01/06 04:51:55;;;;;;;0.40;0.40;;;;;;;;;;5094349;28;20064;-40
2023/01/06 04:54:21;;;;;;;0.73;0.50;;;;;;;;;;5094614;28;20016;-40
2023/01/06 04:56:47;;;;;;;0.60;0.45;;;;;;;;;;5094299;28;20024;-40
2023/01/06 04:59:13;;;;;;;0.60;0.40;;;;;;;;;;5067193;28;20025;-40
2023/01/06 05:01:39;;;;;;;0.75;0.60;;;;;;;;;;5053278;28;20116;-40
2023/01/06 05:04:06;;;;;;;0.45;0.45;;;;;;;;;;5053333;28;20029;-40
2023/01/06 05:06:32;;;;;;;0.40;0.38;;;;;;;;;;5053685;28;20049;-40
2023/01/06 05:08:58;;;;;;;1.10;0.60;;;;;;;;;;5053571;28;20052;-40
2023/01/06 05:11:24;;;;;;;1.33;0.50;;;;;;;;;;5054192;28;20029;-40
2023/01/06 05:13:51;;;;;;;0.30;0.30;;;;;;;;;;5052904;28;20025;-40
2023/01/06 05:16:25;;;;;;;0.52;0.50;;;;;;;;;;5054430;28;20052;-40
2023/01/06 05:18:51;;;;;;;0.60;0.40;;;;;;;;;;5053013;28;20489;-40
2023/01/06 05:21:17;;;;;;;0.50;0.50;;;;;;;;;;5054072;28;20028;-40
2023/01/06 05:23:43;;;;;;;0.60;0.50;;;;;;;;;;5053717;28;20466;-40
2023/01/06 05:26:10;;;;;;;0.95;0.60;;;;;;;;;;5052516;28;20021;-40
2023/01/06 05:28:36;;;;;;;0.63;0.60;;;;;;;;;;5055943;28;20044;-40
2023/01/06 05:31:03;;;;;;;0.98;0.90;;;;;;;;;;5073163;28;20024;-40
2023/01/06 05:33:29;;;;;;;1.30;0.43;;;;;;;;;;5073348;28;20028;-40
2023/01/06 05:35:59;;;;;;;1.05;0.65;;;;;;;;;;5081859;28;20500;-40
2023/01/06 05:38:25;;;;;;;1.05;0.63;;;;;;;;;;5093706;28;20067;-40
2023/01/06 05:40:51;;;;;;;0.60;0.60;;;;;;;;;;5093436;28;20020;-40
2023/01/06 05:43:17;;;;;;;0.70;0.50;;;;;;;;;;5093624;28;20065;-40
2023/01/06 05:45:43;;;;;;;0.55;0.47;;;;;;;;;;5093796;28;20495;-40
2023/01/06 05:48:09;;;;;;;0.55;0.40;;;;;;;;;;5093086;28;20043;-40
2023/01/06 05:50:35;;;;;;;0.80;0.50;;;;;;;;;;5093989;28;20027;-40
2023/01/06 05:53:01;;;;;;;0.55;0.40;;;;;;;;;;5092490;28;20094;-40
2023/01/06 05:55:27;;;;;;;0.65;0.50;;;;;;;;;;5093659;28;20032;-40
2023/01/06 05:57:53;;;;;;;1.35;0.80;;;;;;;;;;5083241;28;20024;-40
2023/01/06 06:00:19;;;;;;;1.00;0.60;;;;;;;;;;5055008;28;20394;-40
2023/01/06 06:02:45;;;;;;;0.70;0.50;;;;;;;;;;5052496;28;20485;-40
2023/01/06 06:05:11;;;;;;;0.50;0.50;;;;;;;;;;5052508;28;20098;-40
2023/01/06 06:07:37;;;;;;;1.00;0.77;;;;;;;;;;5053502;28;20021;-40
2023/01/06 06:10:03;;;;;;;0.85;0.50;;;;;;;;;;5051957;28;20130;-40
2023/01/06 06:12:29;;;;;;;1.35;0.70;;;;;;;;;;5053344;28;20078;-40
2023/01/06 06:14:55;;;;;;;0.73;0.50;;;;;;;;;;5051902;28;20029;-40
2023/01/06 06:17:21;;;;;;;0.65;0.40;;;;;;;;;;5053252;28;20036;-40
2023/01/06 06:19:48;;;;;;;0.70;0.70;;;;;;;;;;5052250;28;20432;-40
2023/01/06 06:22:13;;;;;;;0.82;0.65;;;;;;;;;;5052917;28;20029;-40
2023/01/06 06:24:39;;;;;;;0.70;0.45;;;;;;;;;;5052600;28;20111;-39
2023/01/06 06:27:05;;;;;;;0.90;0.60;;;;;;;;;;5051900;28;20017;-40
2023/01/06 06:29:31;;;;;;;0.60;0.52;;;;;;;;;;5053720;28;20036;-40
2023/01/06 06:31:57;;;;;;;0.98;0.70;;;;;;;;;;5062347;28;20032;-40
2023/01/06 06:34:23;;;;;;;1.75;0.55;;;;;;;;;;5054467;28;20021;-40
2023/01/06 06:36:49;;;;;;;0.43;0.40;;;;;;;;;;5058478;28;20025;-40
2023/01/06 06:39:15;;;;;;;0.77;0.70;;;;;;;;;;5051738;28;20531;-40
2023/01/06 06:41:41;;;;;;;0.68;0.47;;;;;;;;;;5052572;28;20021;-40
2023/01/06 06:44:08;;;;;;;0.80;0.60;;;;;;;;;;5051537;28;20108;-40
2023/01/06 06:46:34;;;;;;;1.02;0.70;;;;;;;;;;5076557;28;20024;-40
2023/01/06 06:49:00;;;;;;;1.20;0.68;;;;;;;;;;5091472;28;20575;-40
2023/01/06 06:51:26;;;;;;;0.60;0.55;;;;;;;;;;5092792;28;20032;-40
2023/01/06 06:53:52;;;;;;;0.82;0.50;;;;;;;;;;5091368;28;20024;-40
2023/01/06 06:56:19;;;;;;;1.45;0.80;;;;;;;;;;5092767;28;20024;-40
2023/01/06 06:58:45;;;;;;;1.02;0.68;;;;;;;;;;5091621;28;20160;-40
2023/01/06 07:01:15;;;;;;;0.45;0.45;;;;;;;;;;5090675;28;20028;-40
2023/01/06 07:03:41;;;;;;;1.77;0.68;;;;;;;;;;5092115;28;20024;-40
2023/01/06 07:06:08;;;;;;;0.80;0.60;;;;;;;;;;5053068;28;20096;-40
2023/01/06 07:08:34;;;;;;;0.40;0.40;;;;;;;;;;5071779;28;20024;-40
2023/01/06 07:11:01;;;;;;;0.77;0.50;;;;;;;;;;5071499;28;20032;-40
2023/01/06 07:13:27;;;;;;;1.15;0.70;;;;;;;;;;5071581;28;20028;-40
2023/01/06 07:15:53;;;;;;;1.40;0.63;;;;;;;;;;5071376;28;20032;-40
2023/01/06 07:18:19;;;;;;;1.02;0.73;;;;;;;;;;5071708;28;20060;-40
2023/01/06 07:20:48;;;;;;;0.57;0.47;;;;;;;;;;5071786;28;20064;-40
2023/01/06 07:23:15;;;;;;;0.40;0.40;;;;;;;;;;5071289;28;20056;-40
2023/01/06 07:25:41;;;;;;;0.55;0.40;;;;;;;;;;5071680;28;20488;-40
2023/01/06 07:28:08;;;;;;;0.63;0.57;;;;;;;;;;5052793;28;20167;-40
2023/01/06 07:30:34;;;;;;;0.52;0.50;;;;;;;;;;5052632;28;20056;-40
2023/01/06 07:33:00;;;;;;;0.55;0.50;;;;;;;;;;5050576;28;20468;-40
2023/01/06 07:35:26;;;;;;;0.30;0.30;;;;;;;;;;5062177;28;20024;-40
2023/01/06 07:37:52;;;;;;;0.50;0.50;;;;;;;;;;5090645;28;20044;-40
2023/01/06 07:40:18;;;;;;;1.05;0.63;;;;;;;;;;5074476;28;20099;-40
2023/01/06 07:42:44;;;;;;;0.50;0.40;;;;;;;;;;5091809;28;20101;-40
2023/01/06 07:45:11;;;;;;;1.23;1.10;;;;;;;;;;5091249;28;20020;-40
2023/01/06 07:47:37;;;;;;;0.40;0.40;;;;;;;;;;5092181;28;20024;-40
2023/01/06 07:50:04;;;;;;;0.32;0.32;;;;;;;;;;5091929;28;20039;-40
2023/01/06 07:52:30;;;;;;;0.43;0.43;;;;;;;;;;5096297;28;20024;-40
2023/01/06 07:54:58;;;;;;;0.57;0.43;;;;;;;;;;5094314;28;20099;-40
2023/01/06 07:57:24;;;;;;;0.88;0.70;;;;;;;;;;5091112;28;20093;-40
2023/01/06 07:59:50;;;;;;;0.50;0.50;;;;;;;;;;5062258;28;20036;-40
2023/01/06 08:02:16;;;;;;;0.82;0.60;;;;;;;;;;5055812;28;20033;-40
2023/01/06 08:04:42;;;;;;;0.80;0.50;;;;;;;;;;5054831;28;20096;-40
2023/01/06 08:07:08;;;;;;;0.93;0.60;;;;;;;;;;5054476;28;20532;-40
2023/01/06 08:09:34;;;;;;;0.82;0.43;;;;;;;;;;5055212;28;20025;-40
2023/01/06 08:12:00;;;;;;;0.60;0.60;;;;;;;;;;5054724;28;20021;-40
2023/01/06 08:14:26;;;;;;;0.40;0.40;;;;;;;;;;5054940;28;20021;-40
2023/01/06 08:16:52;;;;;;;0.95;0.50;;;;;;;;;;5055008;28;20067;-40
2023/01/06 08:19:18;;;;;;;0.57;0.50;;;;;;;;;;5062684;28;20466;-40
2023/01/06 08:21:44;;;;;;;0.68;0.68;;;;;;;;;;5074962;28;20099;-41
2023/01/06 08:24:10;;;;;;;0.73;0.57;;;;;;;;;;5074134;28;20108;-40
2023/01/06 08:26:36;;;;;;;0.40;0.30;;;;;;;;;;5075133;28;20025;-40
2023/01/06 08:29:02;;;;;;;0.52;0.50;;;;;;;;;;5073951;28;20090;-40
2023/01/06 08:31:28;;;;;;;0.40;0.40;;;;;;;;;;5084996;28;20484;-40
2023/01/06 08:33:54;;;;;;;0.40;0.40;;;;;;;;;;5094329;28;20113;-40
2023/01/06 08:36:22;;;;;;;0.50;0.40;;;;;;;;;;5082379;28;20372;-40
2023/01/06 08:38:48;;;;;;;1.30;0.50;;;;;;;;;;5073802;28;20033;-41
2023/01/06 08:41:14;;;;;;;0.68;0.40;;;;;;;;;;5094273;28;20373;-40
2023/01/06 08:43:41;;;;;;;0.50;0.45;;;;;;;;;;5094656;28;20035;-40
2023/01/06 08:46:08;;;;;;;0.40;0.40;;;;;;;;;;5094450;28;20016;-40
2023/01/06 08:48:34;;;;;;;0.75;0.68;;;;;;;;;;5094777;28;20028;-40
2023/01/06 08:51:08;;;;;;;0.60;0.60;;;;;;;;;;5094176;28;20477;-40
2023/01/06 08:53:34;;;;;;;0.60;0.50;;;;;;;;;;5094411;28;20381;-40
2023/01/06 08:56:00;;;;;;;0.50;0.40;;;;;;;;;;5094112;28;20020;-40
2023/01/06 08:58:26;;;;;;;0.55;0.50;;;;;;;;;;5094077;28;20028;-40
2023/01/06 09:00:53;;;;;;;0.38;0.38;;;;;;;;;;5094106;28;20028;-40
2023/01/06 09:03:19;;;;;;;0.60;0.50;;;;;;;;;;5094380;28;20066;-40
2023/01/06 09:05:52;;;;;;;0.55;0.40;;;;;;;;;;5094007;28;20056;-41
2023/01/06 09:08:17;;;;;;;0.80;0.80;;;;;;;;;;5076390;28;20556;-40
2023/01/06 09:10:45;;;;;;;0.60;0.47;;;;;;;;;;5062185;28;20133;-42
2023/01/06 09:13:11;;;;;;;1.08;0.60;;;;;;;;;;5053771;28;20432;-40
2023/01/06 09:15:40;;;;;;;0.75;0.60;;;;;;;;;;5054542;28;20029;-40
2023/01/06 09:18:07;;;;;;;0.40;0.30;;;;;;;;;;5052816;28;20132;-40
2023/01/06 09:20:33;;;;;;;0.35;0.35;;;;;;;;;;5054579;28;20374;-40
2023/01/06 09:22:59;;;;;;;0.52;0.50;;;;;;;;;;5052952;28;20021;-40
2023/01/06 09:25:25;;;;;;;0.80;0.70;;;;;;;;;;5053619;28;20112;-40
2023/01/06 09:27:51;;;;;;;0.57;0.40;;;;;;;;;;5052838;28;20037;-40
2023/01/06 09:30:17;;;;;;;0.40;0.40;;;;;;;;;;5054163;28;20021;-40
2023/01/06 09:32:43;;;;;;;0.40;0.40;;;;;;;;;;5053993;28;20087;-40
2023/01/06 09:35:10;;;;;;;0.85;0.50;;;;;;;;;;5058058;28;20024;-40
2023/01/06 09:37:36;;;;;;;1.00;0.52;;;;;;;;;;5094188;28;20047;-40
2023/01/06 09:40:02;;;;;;;0.35;0.30;;;;;;;;;;5073150;28;20104;-40
2023/01/06 09:42:33;;;;;;;0.50;0.43;;;;;;;;;;5053784;28;20025;-40
2023/01/06 09:45:02;;;;;;;1.10;0.47;;;;;;;;;;5052595;28;20048;-40
2023/01/06 09:47:49;;;;;;;0.73;0.43;;;;;;;;;;5053624;28;20059;-40
2023/01/06 09:50:15;;;;;;;0.57;0.50;;;;;;;;;;5053820;28;20417;-40
2023/01/06 09:52:43;;;;;;;0.50;0.40;;;;;;;;;;5053492;28;20106;-40
2023/01/06 09:55:24;;;;;;;0.47;0.47;;;;;;;;;;5052704;28;20061;-40
2023/01/06 09:57:53;;;;;;;0.28;0.28;;;;;;;;;;5060390;28;20385;-40
2023/01/06 10:00:25;;;;;;;0.57;0.40;;;;;;;;;;5073461;28;20029;-40
2023/01/06 10:02:51;;;;;;;0.40;0.40;;;;;;;;;;5072016;28;20024;-40
2023/01/06 10:05:19;;;;;;;0.50;0.40;;;;;;;;;;5073066;28;20049;-40
2023/01/06 10:07:49;;;;;;;0.50;0.40;;;;;;;;;;5072794;28;20035;-40
2023/01/06 10:10:24;;;;;;;0.38;0.38;;;;;;;;;;5062026;28;20037;-40
2023/01/06 10:13:09;;;;;;;0.57;0.30;;;;;;;;;;5051452;28;20090;-40
2023/01/06 10:15:47;;;;;;;0.75;0.50;;;;;;;;;;5052890;28;20078;-40
2023/01/06 10:18:28;;;;;;;0.52;0.50;;;;;;;;;;5052367;28;20032;-40
2023/01/06 10:21:02;;;;;;;0.90;0.43;;;;;;;;;;5052358;28;20404;-40
2023/01/06 10:23:57;;;;;;;0.60;0.50;;;;;;;;;;5052706;28;20021;-40
2023/01/06 10:26:26;;;;;;;0.65;0.50;;;;;;;;;;4998907;28;20030;-40
2023/01/06 10:28:54;;;;;;;0.50;0.30;;;;;;;;;;5051642;28;20040;-40
2023/01/06 10:31:22;;;;;;;1.02;0.30;;;;;;;;;;5052802;28;20056;-40
2023/01/06 10:33:49;;;;;;;0.60;0.40;;;;;;;;;;5043442;28;20060;-41
2023/01/06 10:36:16;;;;;;;0.35;0.35;;;;;;;;;;5076524;28;20030;-40
2023/01/06 10:38:44;;;;;;;0.38;0.38;;;;;;;;;;5090522;28;20092;-40
2023/01/06 10:41:29;;;;;;;0.40;0.30;;;;;;;;;;5052227;28;20072;-40
2023/01/06 10:43:56;;;;;;;0.50;0.30;;;;;;;;;;5051483;28;20517;-40
2023/01/06 10:46:22;;;;;;;0.25;0.25;;;;;;;;;;5059192;28;20029;-40
2023/01/06 10:48:48;;;;;;;0.40;0.30;;;;;;;;;;5050698;28;20155;-40
2023/01/06 10:51:28;;;;;;;0.32;0.30;;;;;;;;;;5052642;28;20025;-40
2023/01/06 10:53:56;;;;;;;0.52;0.40;;;;;;;;;;5051115;28;20033;-40
2023/01/06 10:56:23;;;;;;;0.60;0.30;;;;;;;;;;5052547;28;20024;-40
2023/01/06 10:58:52;;;;;;;0.85;0.45;;;;;;;;;;5067223;28;20034;-40
2023/01/06 11:01:25;;;;;;;0.25;0.25;;;;;;;;;;5072084;28;20052;-40
2023/01/06 11:04:06;;;;;;;0.30;0.30;;;;;;;;;;5071102;28;20025;-40
2023/01/06 11:06:33;;;;;;;1.48;0.52;;;;;;;;;;5071812;28;20045;-40
2023/01/06 11:09:06;;;;;;;0.35;0.25;;;;;;;;;;5068581;28;20051;-40
2023/01/06 11:11:32;;;;;;;1.23;0.40;;;;;;;;;;5051667;28;20043;-40
2023/01/06 11:14:03;;;;;;;0.50;0.50;;;;;;;;;;5050647;28;20463;-40
2023/01/06 11:16:33;;;;;;;0.30;0.30;;;;;;;;;;5052252;28;20025;-40
2023/01/06 11:19:19;;;;;;;0.52;0.43;;;;;;;;;;5050779;28;20449;-40
2023/01/06 11:21:46;;;;;;;0.47;0.40;;;;;;;;;;5051443;28;20033;-40
2023/01/06 11:24:14;;;;;;;0.35;0.35;;;;;;;;;;5050463;28;20025;-40
2023/01/06 11:26:45;;;;;;;0.50;0.30;;;;;;;;;;5051874;28;20071;-40
2023/01/06 11:29:18;;;;;;;0.30;0.30;;;;;;;;;;5050851;28;20040;-40
2023/01/06 11:31:47;;;;;;;0.60;0.40;;;;;;;;;;5051501;28;20029;-40
2023/01/06 11:34:20;;;;;;;0.50;0.40;;;;;;;;;;5050994;28;20068;-39
2023/01/06 11:36:46;;;;;;;0.50;0.30;;;;;;;;;;5084133;28;20050;-40
2023/01/06 11:39:14;;;;;;;0.50;0.40;;;;;;;;;;5081284;28;20031;-40
2023/01/06 11:41:43;;;;;;;0.57;0.45;;;;;;;;;;5051522;28;20036;-40
2023/01/06 11:44:14;;;;;;;0.90;0.40;;;;;;;;;;5050813;28;20017;-40
2023/01/06 11:46:47;;;;;;;0.40;0.40;;;;;;;;;;5051906;28;20029;-40
2023/01/06 11:49:14;;;;;;;0.32;0.30;;;;;;;;;;5051159;28;20379;-40
2023/01/06 11:51:40;;;;;;;0.20;0.20;;;;;;;;;;5051773;28;20021;-40
2023/01/06 11:54:21;;;;;;;0.60;0.40;;;;;;;;;;5050553;28;20580;-40
2023/01/06 11:57:00;;;;;;;0.40;0.40;;;;;;;;;;5050878;28;20090;-41
2023/01/06 11:59:29;;;;;;;1.25;0.60;;;;;;;;;;5082872;28;20059;-40
2023/01/06 12:01:58;;;;;;;0.60;0.30;;;;;;;;;;5091080;28;20082;-40
2023/01/06 12:04:30;;;;;;;0.35;0.30;;;;;;;;;;5091422;28;20012;-40
2023/01/06 12:07:00;;;;;;;0.73;0.40;;;;;;;;;;5073213;28;20057;-40
2023/01/06 12:09:30;;;;;;;0.40;0.40;;;;;;;;;;5051115;28;20036;-40
2023/01/06 12:11:58;;;;;;;0.45;0.40;;;;;;;;;;5050586;28;20370;-40
2023/01/06 12:14:26;;;;;;;0.70;0.32;;;;;;;;;;5051076;28;20029;-40
2023/01/06 12:17:11;;;;;;;0.22;0.22;;;;;;;;;;5050561;28;20021;-40
2023/01/06 12:19:48;;;;;;;0.47;0.28;;;;;;;;;;5050898;28;20028;-40
2023/01/06 12:22:29;;;;;;;0.65;0.40;;;;;;;;;;5051496;28;20052;-40
2023/01/06 12:24:57;;;;;;;0.40;0.30;;;;;;;;;;5050183;28;20051;-40
2023/01/06 12:27:43;;;;;;;1.30;0.30;;;;;;;;;;5051033;28;20037;-40
2023/01/06 12:30:15;;;;;;;0.73;0.50;;;;;;;;;;5050256;28;20036;-40
2023/01/06 12:32:44;;;;;;;0.35;0.25;;;;;;;;;;5051399;28;20028;-40
2023/01/06 12:35:15;;;;;;;0.50;0.40;;;;;;;;;;5056058;28;20020;-40
2023/01/06 12:37:45;;;;;;;0.55;0.28;;;;;;;;;;5074384;28;20021;-40
2023/01/06 12:40:13;;;;;;;0.32;0.32;;;;;;;;;;5053853;28;20037;-40
2023/01/06 12:42:45;;;;;;;1.00;0.70;;;;;;;;;;5055052;28;20025;-39
2023/01/06 12:45:21;;;;;;;0.47;0.40;;;;;;;;;;5054428;28;20031;-40
2023/01/06 12:47:55;;;;;;;0.38;0.30;;;;;;;;;;5054567;28;20067;-40
2023/01/06 12:50:39;;;;;;;0.57;0.57;;;;;;;;;;5054564;28;20028;-40
2023/01/06 12:53:11;;;;;;;1.23;0.65;;;;;;;;;;5053596;28;20017;-40
2023/01/06 12:55:46;;;;;;;1.27;0.50;;;;;;;;;;5054319;28;20474;-40
2023/01/06 12:58:30;;;;;;;0.63;0.50;;;;;;;;;;5064999;28;20535;-40
2023/01/06 13:00:56;;;;;;;1.63;0.50;;;;;;;;;;5073905;28;20036;-40
2023/01/06 13:03:33;;;;;;;0.65;0.55;;;;;;;;;;5074190;28;20031;-40
2023/01/06 13:06:17;;;;;;;1.00;0.60;;;;;;;;;;5072928;28;20133;-40
2023/01/06 13:08:56;;;;;;;1.90;0.60;;;;;;;;;;5054074;28;20090;-39
2023/01/06 13:11:41;;;;;;;0.80;0.50;;;;;;;;;;5054474;28;20025;-40
2023/01/06 13:14:21;;;;;;;0.70;0.45;;;;;;;;;;5052712;28;20036;-40
2023/01/06 13:16:55;;;;;;;1.23;0.60;;;;;;;;;;5053739;28;20032;-40
2023/01/06 13:19:24;;;;;;;0.68;0.43;;;;;;;;;;5053840;28;20021;-39
2023/01/06 13:21:51;;;;;;;0.47;0.45;;;;;;;;;;5053276;28;20525;-38
2023/01/06 13:24:26;;;;;;;1.67;0.70;;;;;;;;;;5054037;28;20017;-37
2023/01/06 13:26:58;;;;;;;2.55;1.10;;;;;;;;;;5053333;28;20025;-37
2023/01/06 13:29:30;;;;;;;1.00;0.77;;;;;;;;;;5053711;28;20035;-37
2023/01/06 13:31:56;;;;;;;;;;;;;;;;;;5053782;28;20112;-37
2023/01/06 13:34:28;;;;;;;1.55;0.65;;;;;;;;;;5053601;28;19947;-38
2023/01/06 13:36:54;;;;;;;2.88;0.80;;;;;;;;;;5076418;28;20578;-37
2023/01/06 13:39:23;;;;;;;2.63;1.20;;;;;;;;;;5073198;28;20037;-38
2023/01/06 13:41:52;;;;;;;2.78;1.00;;;;;;;;;;5072890;28;20103;-38
2023/01/06 13:44:20;;;;;;;1.17;1.00;;;;;;;;;;5073516;28;20343;-37
2023/01/06 13:46:47;;;;;;;1.90;0.80;;;;;;;;;;5073282;28;20411;-38
2023/01/06 13:49:13;;;;;;;2.67;1.45;;;;;;;;;;5072428;28;20032;-38
2023/01/06 13:51:40;;;;;;;1.30;0.88;;;;;;;;;;5073782;28;20024;-38
2023/01/06 13:54:06;;;;;;;2.42;0.80;;;;;;;;;;5054416;28;20070;-37
2023/01/06 13:56:33;;;;;;;4.72;1.20;;;;;;;;;;5073372;28;20021;-38
2023/01/06 13:59:18;;;;;;;1.95;1.15;;;;;;;;;;5071932;28;20490;-38
2023/01/06 14:01:44;;;;;;;1.40;0.80;;;;;;;;;;5073178;28;20393;-38
2023/01/06 14:04:29;;;;;;;1.52;0.85;;;;;;;;;;5072646;28;20017;-37
2023/01/06 14:06:55;;;;;;;2.75;0.60;;;;;;;;;;5063601;28;20041;-36
2023/01/06 14:09:21;;;;;;;2.78;0.68;;;;;;;;;;5052801;28;20105;-37
2023/01/06 14:11:47;;;;;;;1.88;1.02;;;;;;;;;;5052792;28;20055;-39
2023/01/06 14:14:26;;;;;;;0.95;0.65;;;;;;;;;;5052566;28;20017;-37
2023/01/06 14:16:53;;;;;;;1.25;0.73;;;;;;;;;;5034341;28;20474;-37
2023/01/06 14:19:28;;;;;;;1.92;0.52;;;;;;;;;;5052698;28;20033;-37
2023/01/06 14:22:11;;;;;;;5.13;0.80;;;;;;;;;;5052461;28;20077;-38
2023/01/06 14:24:39;;;;;;;9.73;0.90;;;;;;;;;;5052734;28;20405;-38
2023/01/06 14:27:07;;;;;;;2.65;0.73;;;;;;;;;;5052020;28;20029;-38
2023/01/06 14:29:42;;;;;;;9.88;1.13;;;;;;;;;;5052438;28;20029;-38
2023/01/06 14:32:08;;;;;;;1.50;0.90;;;;;;;;;;5051944;28;20823;-38
2023/01/06 14:34:38;;;;;;;1.52;0.80;;;;;;;;;;5052136;28;20029;-38
2023/01/06 14:37:06;;;;;;;0.70;0.60;;;;;;;;;;5073571;28;20037;-38
2023/01/06 14:39:33;;;;;;;0.93;0.60;;;;;;;;;;5072074;28;20424;-38
2023/01/06 14:41:59;;;;;;;2.90;0.90;;;;;;;;;;5072077;28;20422;-38
2023/01/06 14:44:45;;;;;;;3.38;0.95;;;;;;;;;;5072403;28;20063;-38
2023/01/06 14:47:32;;;;;;;0.77;0.60;;;;;;;;;;5071495;28;20028;-38
2023/01/06 14:50:17;;;;;;;3.22;1.50;;;;;;;;;;5069910;28;20155;-38
2023/01/06 14:53:09;;;;;;;1.02;0.70;;;;;;;;;;5092675;28;20078;-38
2023/01/06 14:55:38;;;;;;;1.45;0.80;;;;;;;;;;5088263;28;20115;-38
2023/01/06 14:58:04;;;;;;;1.00;0.63;;;;;;;;;;5080148;28;20034;-38
2023/01/06 15:00:32;;;;;;;1.00;0.70;;;;;;;;;;5054017;28;20024;-38